sensor_id;sensor_type;location;lat;lon;timestamp;temperature;humidity
52656;SHT85;35474;51.032;6.998;2023-02-15T00:07:46;3.64;82.11
52656;SHT85;35474;51.032;6.998;2023-02-15T00:10:36;3.69;82.16
52656;SHT85;35474;51.032;6.998;2023-02-15T00:25:22;3.52;82.57
52656;SHT85;35474;51.032;6.998;2023-02-15T00:28:57;3.46;82.75
52656;SHT85;35474;51.032;6.998;2023-02-15T00:31:48;3.39;82.94
52656;SHT85;35474;51.032;6.998;2023-02-15T00:46:11;3.33;83.00
52656;SHT85;35474;51.032;6.998;2023-02-15T00:48:47;3.38;83.02
52656;SHT85;35474;51.032;6.998;2023-02-15T00:52:12;3.32;82.98
52656;SHT85;35474;51.032;6.998;2023-02-15T00:54:50;3.29;83.27
52656;SHT85;35474;51.032;6.998;2023-02-15T01:00:42;3.23;83.35
52656;SHT85;35474;51.032;6.998;2023-02-15T01:03:44;3.15;83.63
52656;SHT85;35474;51.032;6.998;2023-02-15T01:06:49;3.12;83.75
52656;SHT85;35474;51.032;6.998;2023-02-15T01:14:00;3.07;84.08
52656;SHT85;35474;51.032;6.998;2023-02-15T01:17:01;3.02;83.95
52656;SHT85;35474;51.032;6.998;2023-02-15T01:20:33;3.02;84.12
52656;SHT85;35474;51.032;6.998;2023-02-15T01:23:20;2.99;84.09
52656;SHT85;35474;51.032;6.998;2023-02-15T01:26:50;2.95;84.22
52656;SHT85;35474;51.032;6.998;2023-02-15T01:29:39;2.92;84.52
52656;SHT85;35474;51.032;6.998;2023-02-15T01:51:29;2.73;85.07
52656;SHT85;35474;51.032;6.998;2023-02-15T01:58:24;2.61;85.13
52656;SHT85;35474;51.032;6.998;2023-02-15T02:01:19;2.61;85.33
52656;SHT85;35474;51.032;6.998;2023-02-15T02:07:38;2.60;85.33
52656;SHT85;35474;51.032;6.998;2023-02-15T02:10:35;2.39;85.46
52656;SHT85;35474;51.032;6.998;2023-02-15T02:13:23;2.37;85.63
52656;SHT85;35474;51.032;6.998;2023-02-15T02:15:58;2.47;85.83
52656;SHT85;35474;51.032;6.998;2023-02-15T02:21:46;2.33;86.05
52656;SHT85;35474;51.032;6.998;2023-02-15T02:53:36;1.99;87.04
52656;SHT85;35474;51.032;6.998;2023-02-15T03:00:18;1.88;87.13
52656;SHT85;35474;51.032;6.998;2023-02-15T03:14:10;1.74;87.23
52656;SHT85;35474;51.032;6.998;2023-02-15T03:20:46;1.89;87.68
52656;SHT85;35474;51.032;6.998;2023-02-15T03:28:03;1.75;87.68
52656;SHT85;35474;51.032;6.998;2023-02-15T03:31:37;1.74;87.74
52656;SHT85;35474;51.032;6.998;2023-02-15T03:34:31;1.64;87.72
52656;SHT85;35474;51.032;6.998;2023-02-15T03:41:34;1.70;87.87
52656;SHT85;35474;51.032;6.998;2023-02-15T03:45:09;1.62;87.85
52656;SHT85;35474;51.032;6.998;2023-02-15T03:56:15;1.58;87.92
52656;SHT85;35474;51.032;6.998;2023-02-15T04:07:10;1.60;87.90
52656;SHT85;35474;51.032;6.998;2023-02-15T04:14:28;1.48;88.02
52656;SHT85;35474;51.032;6.998;2023-02-15T04:17:46;1.50;88.14
52656;SHT85;35474;51.032;6.998;2023-02-15T04:28:11;1.30;88.48
52656;SHT85;35474;51.032;6.998;2023-02-15T04:30:52;1.31;88.56
52656;SHT85;35474;51.032;6.998;2023-02-15T04:34:06;1.39;88.57
52656;SHT85;35474;51.032;6.998;2023-02-15T04:41:41;1.37;88.49
52656;SHT85;35474;51.032;6.998;2023-02-15T04:45:52;1.34;88.57
52656;SHT85;35474;51.032;6.998;2023-02-15T04:52:51;1.33;88.59
52656;SHT85;35474;51.032;6.998;2023-02-15T04:56:42;1.26;88.65
52656;SHT85;35474;51.032;6.998;2023-02-15T05:15:46;1.16;88.68
52656;SHT85;35474;51.032;6.998;2023-02-15T05:23:05;1.13;89.05
52656;SHT85;35474;51.032;6.998;2023-02-15T05:30:19;1.07;89.04
52656;SHT85;35474;51.032;6.998;2023-02-15T05:40:11;1.09;89.20
52656;SHT85;35474;51.032;6.998;2023-02-15T05:47:26;1.04;89.04
52656;SHT85;35474;51.032;6.998;2023-02-15T05:50:33;1.09;88.94
52656;SHT85;35474;51.032;6.998;2023-02-15T05:57:29;1.03;89.03
52656;SHT85;35474;51.032;6.998;2023-02-15T06:03:03;1.03;89.01
52656;SHT85;35474;51.032;6.998;2023-02-15T06:05:40;1.00;89.11
52656;SHT85;35474;51.032;6.998;2023-02-15T06:08:08;0.93;89.09
52656;SHT85;35474;51.032;6.998;2023-02-15T06:10:35;1.04;89.03
52656;SHT85;35474;51.032;6.998;2023-02-15T06:13:03;1.03;89.02
52656;SHT85;35474;51.032;6.998;2023-02-15T06:15:30;1.03;88.94
52656;SHT85;35474;51.032;6.998;2023-02-15T06:18:04;1.03;88.89
52656;SHT85;35474;51.032;6.998;2023-02-15T06:20:36;1.00;88.87
52656;SHT85;35474;51.032;6.998;2023-02-15T06:23:28;1.00;88.75
52656;SHT85;35474;51.032;6.998;2023-02-15T06:26:04;0.97;88.69
52656;SHT85;35474;51.032;6.998;2023-02-15T06:28:33;0.95;88.76
52656;SHT85;35474;51.032;6.998;2023-02-15T06:31:11;0.99;88.77
52656;SHT85;35474;51.032;6.998;2023-02-15T06:33:55;0.96;88.83
52656;SHT85;35474;51.032;6.998;2023-02-15T06:36:38;0.99;88.89
52656;SHT85;35474;51.032;6.998;2023-02-15T06:39:31;0.95;88.86
52656;SHT85;35474;51.032;6.998;2023-02-15T06:42:08;0.97;88.80
52656;SHT85;35474;51.032;6.998;2023-02-15T06:44:41;0.92;88.86
52656;SHT85;35474;51.032;6.998;2023-02-15T06:47:12;0.95;88.84
52656;SHT85;35474;51.032;6.998;2023-02-15T06:49:50;1.00;88.78
52656;SHT85;35474;51.032;6.998;2023-02-15T06:52:17;1.00;88.57
52656;SHT85;35474;51.032;6.998;2023-02-15T06:54:44;0.96;88.71
52656;SHT85;35474;51.032;6.998;2023-02-15T06:57:13;0.96;88.68
52656;SHT85;35474;51.032;6.998;2023-02-15T06:59:43;0.93;88.84
52656;SHT85;35474;51.032;6.998;2023-02-15T07:02:16;1.20;88.74
52656;SHT85;35474;51.032;6.998;2023-02-15T07:04:43;1.34;88.41
52656;SHT85;35474;51.032;6.998;2023-02-15T07:07:12;1.43;87.97
52656;SHT85;35474;51.032;6.998;2023-02-15T07:09:47;1.51;87.31
52656;SHT85;35474;51.032;6.998;2023-02-15T07:12:20;1.40;86.90
52656;SHT85;35474;51.032;6.998;2023-02-15T07:15:18;1.27;87.17
52656;SHT85;35474;51.032;6.998;2023-02-15T07:18:08;1.41;87.35
52656;SHT85;35474;51.032;6.998;2023-02-15T07:20:46;1.70;86.71
52656;SHT85;35474;51.032;6.998;2023-02-15T07:23:13;1.65;85.89
52656;SHT85;35474;51.032;6.998;2023-02-15T07:25:43;1.62;85.76
52656;SHT85;35474;51.032;6.998;2023-02-15T07:28:21;1.78;86.20
52656;SHT85;35474;51.032;6.998;2023-02-15T07:32:35;2.15;84.99
52656;SHT85;35474;51.032;6.998;2023-02-15T07:35:29;2.33;83.90
52656;SHT85;35474;51.032;6.998;2023-02-15T07:38:02;2.49;83.32
52656;SHT85;35474;51.032;6.998;2023-02-15T07:40:41;2.62;82.93
52656;SHT85;35474;51.032;6.998;2023-02-15T07:43:29;2.73;82.04
52656;SHT85;35474;51.032;6.998;2023-02-15T07:46:03;2.94;81.33
52656;SHT85;35474;51.032;6.998;2023-02-15T07:48:35;3.32;80.94
52656;SHT85;35474;51.032;6.998;2023-02-15T07:51:06;3.23;79.56
52656;SHT85;35474;51.032;6.998;2023-02-15T07:53:40;3.25;79.63
52656;SHT85;35474;51.032;6.998;2023-02-15T07:56:17;3.39;79.54
52656;SHT85;35474;51.032;6.998;2023-02-15T07:58:49;3.40;79.03
52656;SHT85;35474;51.032;6.998;2023-02-15T08:03:53;3.69;77.17
52656;SHT85;35474;51.032;6.998;2023-02-15T08:07:03;3.83;77.22
52656;SHT85;35474;51.032;6.998;2023-02-15T08:09:56;3.80;77.18
52656;SHT85;35474;51.032;6.998;2023-02-15T08:17:41;4.49;76.04
52656;SHT85;35474;51.032;6.998;2023-02-15T08:20:27;4.59;75.00
52656;SHT85;35474;51.032;6.998;2023-02-15T08:23:03;4.59;74.48
52656;SHT85;35474;51.032;6.998;2023-02-15T08:25:50;4.38;74.90
52656;SHT85;35474;51.032;6.998;2023-02-15T08:28:40;4.72;74.00
52656;SHT85;35474;51.032;6.998;2023-02-15T08:34:10;4.88;73.21
52656;SHT85;35474;51.032;6.998;2023-02-15T08:36:50;5.99;71.03
52656;SHT85;35474;51.032;6.998;2023-02-15T08:42:52;5.75;70.27
52656;SHT85;35474;51.032;6.998;2023-02-15T08:46:15;5.77;70.13
52656;SHT85;35474;51.032;6.998;2023-02-15T08:49:32;5.77;69.63
52656;SHT85;35474;51.032;6.998;2023-02-15T08:55:58;6.28;67.96
52656;SHT85;35474;51.032;6.998;2023-02-15T08:58:31;6.31;67.99
52656;SHT85;35474;51.032;6.998;2023-02-15T09:01:17;6.34;67.84
52656;SHT85;35474;51.032;6.998;2023-02-15T09:03:58;6.27;67.75
52656;SHT85;35474;51.032;6.998;2023-02-15T09:06:30;7.13;65.29
52656;SHT85;35474;51.032;6.998;2023-02-15T09:09:01;6.69;66.53
52656;SHT85;35474;51.032;6.998;2023-02-15T09:11:48;7.27;64.87
52656;SHT85;35474;51.032;6.998;2023-02-15T09:14:32;6.71;66.34
52656;SHT85;35474;51.032;6.998;2023-02-15T09:17:04;6.61;65.60
52656;SHT85;35474;51.032;6.998;2023-02-15T09:19:31;6.61;66.12
52656;SHT85;35474;51.032;6.998;2023-02-15T09:21:57;6.79;66.23
52656;SHT85;35474;51.032;6.998;2023-02-15T09:24:24;6.72;65.55
52656;SHT85;35474;51.032;6.998;2023-02-15T09:26:51;7.82;63.97
52656;SHT85;35474;51.032;6.998;2023-02-15T09:29:18;7.23;63.44
52656;SHT85;35474;51.032;6.998;2023-02-15T09:31:46;7.68;63.67
52656;SHT85;35474;51.032;6.998;2023-02-15T09:34:16;7.74;63.27
52656;SHT85;35474;51.032;6.998;2023-02-15T09:36:44;8.25;61.49
52656;SHT85;35474;51.032;6.998;2023-02-15T09:39:13;8.03;62.90
52656;SHT85;35474;51.032;6.998;2023-02-15T09:44:46;7.74;62.64
52656;SHT85;35474;51.032;6.998;2023-02-15T09:47:32;8.23;60.54
52656;SHT85;35474;51.032;6.998;2023-02-15T09:58:25;8.10;61.05
52656;SHT85;35474;51.032;6.998;2023-02-15T10:21:18;8.82;59.73
52656;SHT85;35474;51.032;6.998;2023-02-15T10:27:11;9.46;58.58
52656;SHT85;35474;51.032;6.998;2023-02-15T10:30:01;10.39;56.13
52656;SHT85;35474;51.032;6.998;2023-02-15T10:38:08;10.29;55.92
52656;SHT85;35474;51.032;6.998;2023-02-15T10:40:56;10.20;56.31
52656;SHT85;35474;51.032;6.998;2023-02-15T10:57:20;10.26;56.28
52656;SHT85;35474;51.032;6.998;2023-02-15T11:08:15;10.59;55.45
52656;SHT85;35474;51.032;6.998;2023-02-15T11:10:44;11.27;53.37
52656;SHT85;35474;51.032;6.998;2023-02-15T11:13:16;11.39;53.86
52656;SHT85;35474;51.032;6.998;2023-02-15T11:15:50;11.45;52.93
52656;SHT85;35474;51.032;6.998;2023-02-15T11:18:37;11.81;52.13
52656;SHT85;35474;51.032;6.998;2023-02-15T11:23:47;11.86;52.38
52656;SHT85;35474;51.032;6.998;2023-02-15T11:26:27;11.76;53.26
52656;SHT85;35474;51.032;6.998;2023-02-15T11:28:59;12.61;50.28
52656;SHT85;35474;51.032;6.998;2023-02-15T11:31:49;11.44;52.49
52656;SHT85;35474;51.032;6.998;2023-02-15T11:34:21;11.76;52.14
52656;SHT85;35474;51.032;6.998;2023-02-15T11:37:11;12.06;51.13
52656;SHT85;35474;51.032;6.998;2023-02-15T11:39:44;12.58;49.44
52656;SHT85;35474;51.032;6.998;2023-02-15T11:42:21;13.54;48.69
52656;SHT85;35474;51.032;6.998;2023-02-15T11:45:16;13.84;47.65
52656;SHT85;35474;51.032;6.998;2023-02-15T11:47:45;14.36;46.71
52656;SHT85;35474;51.032;6.998;2023-02-15T11:50:16;13.64;46.86
52656;SHT85;35474;51.032;6.998;2023-02-15T11:52:51;13.50;47.10
52656;SHT85;35474;51.032;6.998;2023-02-15T11:55:20;13.33;48.36
52656;SHT85;35474;51.032;6.998;2023-02-15T11:57:53;13.03;48.38
52656;SHT85;35474;51.032;6.998;2023-02-15T12:00:25;13.06;49.11
52656;SHT85;35474;51.032;6.998;2023-02-15T12:03:03;13.91;47.72
52656;SHT85;35474;51.032;6.998;2023-02-15T12:05:57;13.34;48.74
52656;SHT85;35474;51.032;6.998;2023-02-15T12:08:33;12.76;49.83
52656;SHT85;35474;51.032;6.998;2023-02-15T12:11:11;13.84;47.54
52656;SHT85;35474;51.032;6.998;2023-02-15T12:13:53;14.81;45.50
52656;SHT85;35474;51.032;6.998;2023-02-15T12:16:27;14.19;46.19
52656;SHT85;35474;51.032;6.998;2023-02-15T12:18:56;14.98;44.96
52656;SHT85;35474;51.032;6.998;2023-02-15T12:21:27;14.63;44.83
52656;SHT85;35474;51.032;6.998;2023-02-15T12:24:08;14.79;45.13
52656;SHT85;35474;51.032;6.998;2023-02-15T12:26:44;15.41;44.02
52656;SHT85;35474;51.032;6.998;2023-02-15T12:29:22;14.39;45.80
52656;SHT85;35474;51.032;6.998;2023-02-15T12:31:52;14.73;45.96
52656;SHT85;35474;51.032;6.998;2023-02-15T12:34:25;13.83;47.41
52656;SHT85;35474;51.032;6.998;2023-02-15T12:36:56;14.94;45.42
52656;SHT85;35474;51.032;6.998;2023-02-15T12:39:29;15.62;43.93
52656;SHT85;35474;51.032;6.998;2023-02-15T12:42:04;15.18;45.50
52656;SHT85;35474;51.032;6.998;2023-02-15T12:45:03;14.44;46.59
52656;SHT85;35474;51.032;6.998;2023-02-15T12:47:30;14.64;46.04
52656;SHT85;35474;51.032;6.998;2023-02-15T12:50:07;15.36;44.34
52656;SHT85;35474;51.032;6.998;2023-02-15T12:52:43;16.07;43.61
52656;SHT85;35474;51.032;6.998;2023-02-15T12:55:19;15.91;43.66
52656;SHT85;35474;51.032;6.998;2023-02-15T13:00:44;16.00;44.37
52656;SHT85;35474;51.032;6.998;2023-02-15T13:03:18;16.42;42.79
52656;SHT85;35474;51.032;6.998;2023-02-15T13:05:48;15.97;43.13
52656;SHT85;35474;51.032;6.998;2023-02-15T13:08:21;15.36;44.76
52656;SHT85;35474;51.032;6.998;2023-02-15T13:10:53;15.28;44.96
52656;SHT85;35474;51.032;6.998;2023-02-15T13:13:23;15.66;45.12
52656;SHT85;35474;51.032;6.998;2023-02-15T13:15:58;17.00;41.43
52656;SHT85;35474;51.032;6.998;2023-02-15T13:18:35;17.31;40.49
52656;SHT85;35474;51.032;6.998;2023-02-15T13:23:57;16.17;42.41
52656;SHT85;35474;51.032;6.998;2023-02-15T13:26:29;15.18;45.33
52656;SHT85;35474;51.032;6.998;2023-02-15T13:29:12;15.58;44.07
52656;SHT85;35474;51.032;6.998;2023-02-15T13:31:44;15.20;45.96
52656;SHT85;35474;51.032;6.998;2023-02-15T13:34:15;15.48;45.02
52656;SHT85;35474;51.032;6.998;2023-02-15T13:42:16;14.69;46.16
52656;SHT85;35474;51.032;6.998;2023-02-15T13:50:20;15.07;45.24
52656;SHT85;35474;51.032;6.998;2023-02-15T13:53:09;14.98;45.27
52656;SHT85;35474;51.032;6.998;2023-02-15T14:04:38;16.59;42.82
52656;SHT85;35474;51.032;6.998;2023-02-15T14:10:17;15.46;45.02
52656;SHT85;35474;51.032;6.998;2023-02-15T14:15:50;15.89;43.32
52656;SHT85;35474;51.032;6.998;2023-02-15T14:18:25;16.31;42.61
52656;SHT85;35474;51.032;6.998;2023-02-15T14:23:40;17.23;41.65
52656;SHT85;35474;51.032;6.998;2023-02-15T14:31:17;16.07;42.90
52656;SHT85;35474;51.032;6.998;2023-02-15T14:33:55;15.79;43.95
52656;SHT85;35474;51.032;6.998;2023-02-15T14:36:23;14.87;45.11
52656;SHT85;35474;51.032;6.998;2023-02-15T14:41:57;14.95;46.09
52656;SHT85;35474;51.032;6.998;2023-02-15T14:47:02;14.85;46.69
52656;SHT85;35474;51.032;6.998;2023-02-15T14:49:37;15.04;46.74
52656;SHT85;35474;51.032;6.998;2023-02-15T14:52:08;15.01;46.83
52656;SHT85;35474;51.032;6.998;2023-02-15T15:02:17;13.98;49.70
52656;SHT85;35474;51.032;6.998;2023-02-15T15:04:56;13.95;50.04
52656;SHT85;35474;51.032;6.998;2023-02-15T15:10:23;14.09;50.45
52656;SHT85;35474;51.032;6.998;2023-02-15T15:12:53;13.95;50.66
52656;SHT85;35474;51.032;6.998;2023-02-15T15:21:06;13.33;52.33
52656;SHT85;35474;51.032;6.998;2023-02-15T15:29:15;12.89;53.66
52656;SHT85;35474;51.032;6.998;2023-02-15T15:32:05;12.86;53.83
52656;SHT85;35474;51.032;6.998;2023-02-15T15:38:33;12.41;55.18
52656;SHT85;35474;51.032;6.998;2023-02-15T15:40:29;12.40;55.65
52656;SHT85;35474;51.032;6.998;2023-02-15T15:49:08;12.28;55.90
52656;SHT85;35474;51.032;6.998;2023-02-15T15:51:39;12.24;55.16
52656;SHT85;35474;51.032;6.998;2023-02-15T15:54:17;12.23;55.23
52656;SHT85;35474;51.032;6.998;2023-02-15T15:56:47;12.10;55.25
52656;SHT85;35474;51.032;6.998;2023-02-15T15:59:27;12.03;55.25
52656;SHT85;35474;51.032;6.998;2023-02-15T16:01:56;11.96;55.59
52656;SHT85;35474;51.032;6.998;2023-02-15T16:04:31;11.81;55.88
52656;SHT85;35474;51.032;6.998;2023-02-15T16:09:57;11.68;56.65
52656;SHT85;35474;51.032;6.998;2023-02-15T16:12:29;11.69;56.92
52656;SHT85;35474;51.032;6.998;2023-02-15T16:15:00;11.61;56.96
52656;SHT85;35474;51.032;6.998;2023-02-15T16:17:31;11.41;57.63
52656;SHT85;35474;51.032;6.998;2023-02-15T16:20:01;11.37;57.93
52656;SHT85;35474;51.032;6.998;2023-02-15T16:22:32;11.31;58.24
52656;SHT85;35474;51.032;6.998;2023-02-15T16:27:48;11.17;58.81
52656;SHT85;35474;51.032;6.998;2023-02-15T16:30:29;11.06;58.79
52656;SHT85;35474;51.032;6.998;2023-02-15T16:33:07;11.00;59.19
52656;SHT85;35474;51.032;6.998;2023-02-15T16:35:55;10.93;59.54
52656;SHT85;35474;51.032;6.998;2023-02-15T16:41:23;10.72;60.18
52656;SHT85;35474;51.032;6.998;2023-02-15T16:44:03;10.81;59.96
52656;SHT85;35474;51.032;6.998;2023-02-15T16:46:38;10.72;60.04
52656;SHT85;35474;51.032;6.998;2023-02-15T16:49:37;10.63;60.21
52656;SHT85;35474;51.032;6.998;2023-02-15T16:52:11;10.59;60.51
52656;SHT85;35474;51.032;6.998;2023-02-15T16:55:04;10.56;60.55
52656;SHT85;35474;51.032;6.998;2023-02-15T16:57:50;10.52;60.72
52656;SHT85;35474;51.032;6.998;2023-02-15T17:00:31;10.39;61.10
52656;SHT85;35474;51.032;6.998;2023-02-15T17:05:52;10.28;61.67
52656;SHT85;35474;51.032;6.998;2023-02-15T17:19:23;10.05;62.26
52656;SHT85;35474;51.032;6.998;2023-02-15T17:21:54;10.05;62.66
52656;SHT85;35474;51.032;6.998;2023-02-15T17:24:45;9.95;62.91
52656;SHT85;35474;51.032;6.998;2023-02-15T17:27:16;9.87;63.01
52656;SHT85;35474;51.032;6.998;2023-02-15T17:29:51;9.94;62.94
52656;SHT85;35474;51.032;6.998;2023-02-15T17:32:23;9.84;63.27
52656;SHT85;35474;51.032;6.998;2023-02-15T17:35:08;9.77;63.46
52656;SHT85;35474;51.032;6.998;2023-02-15T17:37:44;9.80;63.54
52656;SHT85;35474;51.032;6.998;2023-02-15T17:40:25;9.66;63.94
52656;SHT85;35474;51.032;6.998;2023-02-15T17:42:54;9.57;64.50
52656;SHT85;35474;51.032;6.998;2023-02-15T17:45:22;9.53;64.51
52656;SHT85;35474;51.032;6.998;2023-02-15T17:47:52;9.43;64.88
52656;SHT85;35474;51.032;6.998;2023-02-15T17:50:25;9.31;65.49
52656;SHT85;35474;51.032;6.998;2023-02-15T17:52:53;9.25;65.52
52656;SHT85;35474;51.032;6.998;2023-02-15T17:55:22;9.25;65.54
52656;SHT85;35474;51.032;6.998;2023-02-15T17:58:08;9.25;65.44
52656;SHT85;35474;51.032;6.998;2023-02-15T18:00:43;9.15;65.73
52656;SHT85;35474;51.032;6.998;2023-02-15T18:03:49;9.04;66.20
52656;SHT85;35474;51.032;6.998;2023-02-15T18:06:37;9.32;66.17
52656;SHT85;35474;51.032;6.998;2023-02-15T18:09:25;9.38;65.64
52656;SHT85;35474;51.032;6.998;2023-02-15T18:14:50;9.10;66.17
52656;SHT85;35474;51.032;6.998;2023-02-15T18:19:55;9.08;66.24
52656;SHT85;35474;51.032;6.998;2023-02-15T18:22:22;9.11;66.08
52656;SHT85;35474;51.032;6.998;2023-02-15T18:24:49;8.95;66.35
52656;SHT85;35474;51.032;6.998;2023-02-15T18:27:16;8.91;66.75
52656;SHT85;35474;51.032;6.998;2023-02-15T18:29:45;8.82;66.93
52656;SHT85;35474;51.032;6.998;2023-02-15T18:32:15;8.89;67.35
52656;SHT85;35474;51.032;6.998;2023-02-15T18:34:57;9.01;66.46
52656;SHT85;35474;51.032;6.998;2023-02-15T18:37:25;8.97;66.62
52656;SHT85;35474;51.032;6.998;2023-02-15T18:40:03;8.87;66.95
52656;SHT85;35474;51.032;6.998;2023-02-15T18:42:31;8.78;67.22
52656;SHT85;35474;51.032;6.998;2023-02-15T18:47:50;8.68;67.62
52656;SHT85;35474;51.032;6.998;2023-02-15T18:50:21;8.71;67.42
52656;SHT85;35474;51.032;6.998;2023-02-15T18:52:53;8.70;67.53
52656;SHT85;35474;51.032;6.998;2023-02-15T18:57:33;8.53;67.84
52656;SHT85;35474;51.032;6.998;2023-02-15T19:00:00;8.46;68.14
52656;SHT85;35474;51.032;6.998;2023-02-15T19:02:27;8.40;68.37
52656;SHT85;35474;51.032;6.998;2023-02-15T19:04:53;8.36;68.56
52656;SHT85;35474;51.032;6.998;2023-02-15T19:07:25;8.33;68.65
52656;SHT85;35474;51.032;6.998;2023-02-15T19:09:54;8.29;68.77
52656;SHT85;35474;51.032;6.998;2023-02-15T19:12:29;8.22;69.05
52656;SHT85;35474;51.032;6.998;2023-02-15T19:14:58;8.22;69.01
52656;SHT85;35474;51.032;6.998;2023-02-15T19:17:25;8.22;69.01
52656;SHT85;35474;51.032;6.998;2023-02-15T19:19:51;8.15;69.17
52656;SHT85;35474;51.032;6.998;2023-02-15T19:22:25;8.10;69.47
52656;SHT85;35474;51.032;6.998;2023-02-15T19:24:54;8.09;69.64
52656;SHT85;35474;51.032;6.998;2023-02-15T19:27:31;8.05;69.61
52656;SHT85;35474;51.032;6.998;2023-02-15T19:30:06;8.03;69.72
52656;SHT85;35474;51.032;6.998;2023-02-15T19:32:57;7.98;69.88
52656;SHT85;35474;51.032;6.998;2023-02-15T19:35:25;7.93;69.99
52656;SHT85;35474;51.032;6.998;2023-02-15T19:38:11;7.89;70.18
52656;SHT85;35474;51.032;6.998;2023-02-15T19:41:12;7.86;70.42
52656;SHT85;35474;51.032;6.998;2023-02-15T19:44:16;7.84;70.21
52656;SHT85;35474;51.032;6.998;2023-02-15T19:46:52;7.78;70.58
52656;SHT85;35474;51.032;6.998;2023-02-15T19:49:18;7.72;70.68
52656;SHT85;35474;51.032;6.998;2023-02-15T19:51:47;7.78;70.62
52656;SHT85;35474;51.032;6.998;2023-02-15T19:56:53;7.70;70.76
52656;SHT85;35474;51.032;6.998;2023-02-15T19:59:22;7.63;70.77
52656;SHT85;35474;51.032;6.998;2023-02-15T20:01:50;7.63;71.04
52656;SHT85;35474;51.032;6.998;2023-02-15T20:04:17;7.53;71.25
52656;SHT85;35474;51.032;6.998;2023-02-15T20:06:45;7.48;71.32
52656;SHT85;35474;51.032;6.998;2023-02-15T20:09:17;7.44;71.54
52656;SHT85;35474;51.032;6.998;2023-02-15T20:11:45;7.47;71.48
52656;SHT85;35474;51.032;6.998;2023-02-15T20:14:13;7.40;71.60
52656;SHT85;35474;51.032;6.998;2023-02-15T20:16:40;7.34;71.83
52656;SHT85;35474;51.032;6.998;2023-02-15T20:19:06;7.35;71.75
52656;SHT85;35474;51.032;6.998;2023-02-15T20:21:33;7.31;72.02
52656;SHT85;35474;51.032;6.998;2023-02-15T20:24:01;7.30;71.96
52656;SHT85;35474;51.032;6.998;2023-02-15T20:26:29;7.26;72.20
52656;SHT85;35474;51.032;6.998;2023-02-15T20:29:00;7.23;72.32
52656;SHT85;35474;51.032;6.998;2023-02-15T20:31:27;7.17;72.41
52656;SHT85;35474;51.032;6.998;2023-02-15T20:33:53;7.16;72.53
52656;SHT85;35474;51.032;6.998;2023-02-15T20:36:20;7.14;72.62
52656;SHT85;35474;51.032;6.998;2023-02-15T20:38:48;7.13;72.76
52656;SHT85;35474;51.032;6.998;2023-02-15T20:41:18;7.10;72.58
52656;SHT85;35474;51.032;6.998;2023-02-15T20:44:08;7.09;72.71
52656;SHT85;35474;51.032;6.998;2023-02-15T20:46:41;7.10;72.66
52656;SHT85;35474;51.032;6.998;2023-02-15T20:49:08;7.12;72.62
52656;SHT85;35474;51.032;6.998;2023-02-15T20:51:35;7.03;72.85
52656;SHT85;35474;51.032;6.998;2023-02-15T20:54:07;6.91;73.03
52656;SHT85;35474;51.032;6.998;2023-02-15T20:56:50;6.95;73.06
52656;SHT85;35474;51.032;6.998;2023-02-15T20:59:27;6.93;73.20
52656;SHT85;35474;51.032;6.998;2023-02-15T21:01:59;6.92;73.36
52656;SHT85;35474;51.032;6.998;2023-02-15T21:04:31;6.93;73.25
52656;SHT85;35474;51.032;6.998;2023-02-15T21:07:01;6.82;73.57
52656;SHT85;35474;51.032;6.998;2023-02-15T21:09:28;6.79;73.53
52656;SHT85;35474;51.032;6.998;2023-02-15T21:11:55;6.78;73.36
52656;SHT85;35474;51.032;6.998;2023-02-15T21:14:24;6.56;73.86
52656;SHT85;35474;51.032;6.998;2023-02-15T21:16:52;6.81;73.82
52656;SHT85;35474;51.032;6.998;2023-02-15T21:19:21;6.63;73.96
52656;SHT85;35474;51.032;6.998;2023-02-15T21:21:49;6.81;73.84
52656;SHT85;35474;51.032;6.998;2023-02-15T21:24:25;6.81;73.51
52656;SHT85;35474;51.032;6.998;2023-02-15T21:26:52;6.79;73.78
52656;SHT85;35474;51.032;6.998;2023-02-15T21:29:24;6.64;73.67
52656;SHT85;35474;51.032;6.998;2023-02-15T21:31:52;6.74;73.81
52656;SHT85;35474;51.032;6.998;2023-02-15T21:34:19;6.64;73.91
52656;SHT85;35474;51.032;6.998;2023-02-15T21:36:46;6.67;73.92
52656;SHT85;35474;51.032;6.998;2023-02-15T21:39:23;6.55;73.73
52656;SHT85;35474;51.032;6.998;2023-02-15T21:42:08;6.42;74.75
52656;SHT85;35474;51.032;6.998;2023-02-15T21:45:05;6.54;73.94
52656;SHT85;35474;51.032;6.998;2023-02-15T21:48:15;6.40;74.27
52656;SHT85;35474;51.032;6.998;2023-02-15T21:50:59;6.44;74.45
52656;SHT85;35474;51.032;6.998;2023-02-15T21:53:58;6.42;74.43
52656;SHT85;35474;51.032;6.998;2023-02-15T21:56:35;6.33;74.83
52656;SHT85;35474;51.032;6.998;2023-02-15T22:02:29;6.35;74.51
52656;SHT85;35474;51.032;6.998;2023-02-15T22:05:24;6.21;75.00
52656;SHT85;35474;51.032;6.998;2023-02-15T22:08:28;6.27;74.90
52656;SHT85;35474;51.032;6.998;2023-02-15T22:11:00;6.11;74.79
52656;SHT85;35474;51.032;6.998;2023-02-15T22:13:29;5.93;75.57
52656;SHT85;35474;51.032;6.998;2023-02-15T22:18:47;6.10;75.28
52656;SHT85;35474;51.032;6.998;2023-02-15T22:21:17;5.96;75.16
52656;SHT85;35474;51.032;6.998;2023-02-15T22:24:39;5.73;76.18
52656;SHT85;35474;51.032;6.998;2023-02-15T22:27:33;5.85;76.39
52656;SHT85;35474;51.032;6.998;2023-02-15T22:39:14;5.69;76.73
52656;SHT85;35474;51.032;6.998;2023-02-15T22:41:54;5.59;77.08
52656;SHT85;35474;51.032;6.998;2023-02-15T22:44:31;5.38;77.32
52656;SHT85;35474;51.032;6.998;2023-02-15T22:47:07;5.31;77.55
52656;SHT85;35474;51.032;6.998;2023-02-15T22:49:53;5.23;77.76
52656;SHT85;35474;51.032;6.998;2023-02-15T22:52:26;5.34;78.07
52656;SHT85;35474;51.032;6.998;2023-02-15T22:54:52;5.58;77.55
52656;SHT85;35474;51.032;6.998;2023-02-15T22:57:24;5.52;77.33
52656;SHT85;35474;51.032;6.998;2023-02-15T22:59:55;5.48;77.32
52656;SHT85;35474;51.032;6.998;2023-02-15T23:02:22;5.30;77.36
52656;SHT85;35474;51.032;6.998;2023-02-15T23:04:58;5.24;77.62
52656;SHT85;35474;51.032;6.998;2023-02-15T23:07:44;5.38;77.61
52656;SHT85;35474;51.032;6.998;2023-02-15T23:10:14;5.27;77.26
52656;SHT85;35474;51.032;6.998;2023-02-15T23:12:49;5.08;77.70
52656;SHT85;35474;51.032;6.998;2023-02-15T23:15:37;5.16;77.96
52656;SHT85;35474;51.032;6.998;2023-02-15T23:18:18;5.13;78.14
52656;SHT85;35474;51.032;6.998;2023-02-15T23:21:00;5.23;77.88
52656;SHT85;35474;51.032;6.998;2023-02-15T23:23:34;5.08;77.80
52656;SHT85;35474;51.032;6.998;2023-02-15T23:28:59;5.08;78.73
52656;SHT85;35474;51.032;6.998;2023-02-15T23:31:28;5.20;78.14
52656;SHT85;35474;51.032;6.998;2023-02-15T23:34:08;5.16;77.81
52656;SHT85;35474;51.032;6.998;2023-02-15T23:36:40;5.08;78.14
52656;SHT85;35474;51.032;6.998;2023-02-15T23:39:18;5.13;78.29
52656;SHT85;35474;51.032;6.998;2023-02-15T23:42:22;5.11;77.99
52656;SHT85;35474;51.032;6.998;2023-02-15T23:45:23;4.93;78.07
52656;SHT85;35474;51.032;6.998;2023-02-15T23:47:50;4.81;78.79
52656;SHT85;35474;51.032;6.998;2023-02-15T23:50:36;4.97;78.71
52656;SHT85;35474;51.032;6.998;2023-02-15T23:53:45;4.83;79.16
52656;SHT85;35474;51.032;6.998;2023-02-15T23:56:12;4.80;79.25